Accueil
METAR-TAF:

METAR-TAF

Aéroports :

Aéroport Riviera Airport

Albenga, Italie

latitude: 44-03N, longitude: 008-07E, altitude: 45 m

Observation

Le bulletin a été fait il y a 8 heures et 15 minutes, à 17:50 UTC
Vent 15 kt de nord avec des rafales jusqu'à 25 kt, variant entre nord/nord-ouest et nord-est
Température 11°C
Humidité 47%
Pression 1016 hPa
Visibilité 10 km ou plus
Nuages épars à une hauteur de 5000 ft

METAR: LIMG 161750Z 36015G25KT 330V040 9999 SCT050 11/00 Q1016

Heure: 04:05 (02:05 UTC)

Prévision

Le bulletin a été fait il y a 20 heures et 9 minutes, à 05:56 UTC
Prévision valable du 16 à 07 UTC au 16 à 15 UTC
Vent 16 kt de nord/nord-est
Visibilité 10 km ou plus
Nuages fragmentés à une hauteur de 3500 ft
Temporairement
du 16 à 08 UTC au 16 à 14 UTC
averses de pluie

TAF: LIMG 160556Z 1607/1615 02016KT 9999 BKN035 TEMPO 1608/1614 SHRA

Observations et prévisions météorologiques de plus de 4000 aéroports (messages METAR et TAF).

Les stations disponibles sont représentées par des disques jaunes et rouges sur la carte.

Passer la souris dessus pour voir le nom de la station.

Cliquer dessus pour voir les observations et prévisions météorologiques.

Pour changer de carte: cliquez sur les boutons verts avec une croix noire pour zoomer, sur le bouton vert avec un tiret pour effectuer un zoom arrière, ou sur les flèches vertes pour les cartes adjacentes.


METAR-TAF: